Startpagina
METAR-TAF:

METAR-TAF

Vliegvelden :

Alice Springs, Australië

breedte: 23-48S, lengte: 133-53E, hoogte: 545 m

Actueel weer

Dit bericht is 35 minuten geleden gemaakt, om 10:30 UTC
Wind 6 kt uit het noordnoordoosten
Temperatuur 34°C
Vochtigheid 28%
Druk 1010 hPa
Zicht 10 km of meer
Verspreide wolken op 11500 ft

METAR: YBAS 261030Z AUTO 03006KT 9999 // SCT115 34/13 Q1010 RF00.0/000.0

Tijdstip: 20:35 (11:05 UTC)

Verwachting

Dit bericht is 5 uur en het 59 minuten geleden gemaakt, om 05:06 UTC
Verwachting geldig van 26 om 06 UTC tot 27 om 06 UTC
Wind 8 kt uit het noordoosten
Zicht 10 km of meer
geen wolken onder 1500 m en geen cumulonimbus
Van 26 om 1200 UTC
Wind 5 kt uit het noordwesten
Zicht 10 km of meer
geen wolken onder 1500 m en geen cumulonimbus
Van 27 om 0000 UTC
Wind 10 kt uit het noordnoordoosten
Zicht 10 km of meer
geen wolken onder 1500 m en geen cumulonimbus

TAF: YBAS 260506Z 2606/2706 05008KT CAVOK FM261200 31005KT CAVOK FM270000 03010KT CAVOK

Waarnemingen en weersverwachtingen van meer dan 4000 vliegvelden (METAR en TAF).

De beschikbare stations zijn de gele en rode punten op de kaart.

Ga met uw muis naar het station om de naam te zien.

Klik dan om waarnemingen en weersverwachtingen te zien.

kaart wijzigen: klik op de groene knoppen met een zwart kruis om in te zoomen, op de groene knop met een streepje om uit te zoomen of op de groene pijlen voor aangrenzende kaarten.


METAR-TAF: